sensor_id;sensor_type;location;lat;lon;timestamp;P1;durP1;ratioP1;P2;durP2;ratioP2
62911;SDS011;49111;51.028;4.218;2022-09-02T00:00:41;5.95;;;3.50;;
62911;SDS011;49111;51.028;4.218;2022-09-02T00:03:08;10.23;;;3.25;;
62911;SDS011;49111;51.028;4.218;2022-09-02T00:05:36;5.10;;;2.40;;
62911;SDS011;49111;51.028;4.218;2022-09-02T00:08:02;7.05;;;3.28;;
62911;SDS011;49111;51.028;4.218;2022-09-02T00:10:29;6.97;;;3.13;;
62911;SDS011;49111;51.028;4.218;2022-09-02T00:12:55;7.30;;;2.95;;
62911;SDS011;49111;51.028;4.218;2022-09-02T00:15:21;6.05;;;3.38;;
62911;SDS011;49111;51.028;4.218;2022-09-02T00:17:47;6.78;;;3.58;;
62911;SDS011;49111;51.028;4.218;2022-09-02T00:20:13;6.10;;;3.25;;
62911;SDS011;49111;51.028;4.218;2022-09-02T00:22:38;8.07;;;2.67;;
62911;SDS011;49111;51.028;4.218;2022-09-02T00:25:05;4.15;;;2.60;;
62911;SDS011;49111;51.028;4.218;2022-09-02T00:27:31;5.72;;;3.13;;
62911;SDS011;49111;51.028;4.218;2022-09-02T00:29:57;6.72;;;3.00;;
62911;SDS011;49111;51.028;4.218;2022-09-02T00:32:23;4.90;;;2.80;;
62911;SDS011;49111;51.028;4.218;2022-09-02T00:34:48;6.47;;;3.15;;
62911;SDS011;49111;51.028;4.218;2022-09-02T00:37:14;5.53;;;2.50;;
62911;SDS011;49111;51.028;4.218;2022-09-02T00:39:40;5.53;;;3.05;;
62911;SDS011;49111;51.028;4.218;2022-09-02T00:42:06;4.07;;;2.83;;
62911;SDS011;49111;51.028;4.218;2022-09-02T00:44:33;6.55;;;2.95;;
62911;SDS011;49111;51.028;4.218;2022-09-02T00:46:59;5.47;;;3.63;;
62911;SDS011;49111;51.028;4.218;2022-09-02T00:49:27;6.55;;;3.20;;
62911;SDS011;49111;51.028;4.218;2022-09-02T00:52:03;7.30;;;3.22;;
62911;SDS011;49111;51.028;4.218;2022-09-02T00:55:04;3.92;;;2.83;;
62911;SDS011;49111;51.028;4.218;2022-09-02T00:57:58;6.32;;;3.25;;
62911;SDS011;49111;51.028;4.218;2022-09-02T01:00:29;7.30;;;3.88;;
62911;SDS011;49111;51.028;4.218;2022-09-02T01:03:00;7.72;;;3.33;;
62911;SDS011;49111;51.028;4.218;2022-09-02T01:05:30;6.70;;;3.03;;
62911;SDS011;49111;51.028;4.218;2022-09-02T01:08:00;6.97;;;3.65;;
62911;SDS011;49111;51.028;4.218;2022-09-02T01:10:29;6.97;;;3.78;;
62911;SDS011;49111;51.028;4.218;2022-09-02T01:15:32;5.05;;;3.05;;
62911;SDS011;49111;51.028;4.218;2022-09-02T01:18:02;7.43;;;4.00;;
62911;SDS011;49111;51.028;4.218;2022-09-02T01:20:30;6.07;;;4.05;;
62911;SDS011;49111;51.028;4.218;2022-09-02T01:22:56;6.60;;;3.35;;
62911;SDS011;49111;51.028;4.218;2022-09-02T01:25:24;8.40;;;3.72;;
62911;SDS011;49111;51.028;4.218;2022-09-02T01:28:02;5.45;;;3.80;;
62911;SDS011;49111;51.028;4.218;2022-09-02T01:30:30;5.75;;;3.90;;
62911;SDS011;49111;51.028;4.218;2022-09-02T01:32:57;4.63;;;3.55;;
62911;SDS011;49111;51.028;4.218;2022-09-02T01:35:23;6.68;;;3.33;;
62911;SDS011;49111;51.028;4.218;2022-09-02T01:37:52;8.18;;;4.80;;
62911;SDS011;49111;51.028;4.218;2022-09-02T01:40:20;5.32;;;3.42;;
62911;SDS011;49111;51.028;4.218;2022-09-02T01:42:46;8.52;;;3.58;;
62911;SDS011;49111;51.028;4.218;2022-09-02T01:45:17;5.88;;;4.18;;
62911;SDS011;49111;51.028;4.218;2022-09-02T01:47:43;6.43;;;3.55;;
62911;SDS011;49111;51.028;4.218;2022-09-02T01:50:08;5.28;;;3.15;;
62911;SDS011;49111;51.028;4.218;2022-09-02T01:52:34;8.77;;;4.03;;
62911;SDS011;49111;51.028;4.218;2022-09-02T01:55:01;5.70;;;3.50;;
62911;SDS011;49111;51.028;4.218;2022-09-02T01:57:29;8.25;;;3.38;;
62911;SDS011;49111;51.028;4.218;2022-09-02T01:59:55;7.40;;;3.58;;
62911;SDS011;49111;51.028;4.218;2022-09-02T02:02:21;8.30;;;3.92;;
62911;SDS011;49111;51.028;4.218;2022-09-02T02:04:47;6.75;;;4.50;;
62911;SDS011;49111;51.028;4.218;2022-09-02T02:07:15;7.85;;;3.70;;
62911;SDS011;49111;51.028;4.218;2022-09-02T02:09:42;4.93;;;3.50;;
62911;SDS011;49111;51.028;4.218;2022-09-02T02:12:13;6.88;;;3.42;;
62911;SDS011;49111;51.028;4.218;2022-09-02T02:14:40;7.07;;;3.38;;
62911;SDS011;49111;51.028;4.218;2022-09-02T02:17:06;6.93;;;4.20;;
62911;SDS011;49111;51.028;4.218;2022-09-02T02:19:33;6.68;;;3.58;;
62911;SDS011;49111;51.028;4.218;2022-09-02T02:21:59;5.65;;;3.47;;
62911;SDS011;49111;51.028;4.218;2022-09-02T02:24:25;8.05;;;3.75;;
62911;SDS011;49111;51.028;4.218;2022-09-02T02:26:51;9.05;;;4.15;;
62911;SDS011;49111;51.028;4.218;2022-09-02T02:29:19;7.78;;;4.05;;
62911;SDS011;49111;51.028;4.218;2022-09-02T02:31:46;7.18;;;4.05;;
62911;SDS011;49111;51.028;4.218;2022-09-02T02:34:12;6.15;;;3.38;;
62911;SDS011;49111;51.028;4.218;2022-09-02T02:36:38;5.25;;;3.65;;
62911;SDS011;49111;51.028;4.218;2022-09-02T02:39:05;7.13;;;3.95;;
62911;SDS011;49111;51.028;4.218;2022-09-02T02:41:33;7.75;;;3.95;;
62911;SDS011;49111;51.028;4.218;2022-09-02T02:44:00;6.95;;;3.80;;
62911;SDS011;49111;51.028;4.218;2022-09-02T02:46:26;6.50;;;3.55;;
62911;SDS011;49111;51.028;4.218;2022-09-02T02:48:57;7.47;;;4.70;;
62911;SDS011;49111;51.028;4.218;2022-09-02T02:51:24;7.65;;;4.38;;
62911;SDS011;49111;51.028;4.218;2022-09-02T02:53:50;9.07;;;3.90;;
62911;SDS011;49111;51.028;4.218;2022-09-02T02:56:17;9.13;;;5.18;;
62911;SDS011;49111;51.028;4.218;2022-09-02T02:58:43;8.52;;;4.45;;
62911;SDS011;49111;51.028;4.218;2022-09-02T03:01:09;8.00;;;4.68;;
62911;SDS011;49111;51.028;4.218;2022-09-02T03:03:34;8.27;;;3.95;;
62911;SDS011;49111;51.028;4.218;2022-09-02T03:06:01;8.27;;;5.13;;
62911;SDS011;49111;51.028;4.218;2022-09-02T03:08:28;6.88;;;4.53;;
62911;SDS011;49111;51.028;4.218;2022-09-02T03:10:55;5.70;;;4.00;;
62911;SDS011;49111;51.028;4.218;2022-09-02T03:13:25;7.18;;;4.97;;
62911;SDS011;49111;51.028;4.218;2022-09-02T03:15:51;10.27;;;4.68;;
62911;SDS011;49111;51.028;4.218;2022-09-02T03:18:18;8.75;;;4.40;;
62911;SDS011;49111;51.028;4.218;2022-09-02T03:20:46;8.73;;;4.78;;
62911;SDS011;49111;51.028;4.218;2022-09-02T03:23:12;6.85;;;4.95;;
62911;SDS011;49111;51.028;4.218;2022-09-02T03:25:43;9.13;;;5.13;;
62911;SDS011;49111;51.028;4.218;2022-09-02T03:28:16;7.65;;;4.55;;
62911;SDS011;49111;51.028;4.218;2022-09-02T03:30:44;9.20;;;4.80;;
62911;SDS011;49111;51.028;4.218;2022-09-02T03:33:12;8.77;;;4.28;;
62911;SDS011;49111;51.028;4.218;2022-09-02T03:35:39;7.43;;;4.63;;
62911;SDS011;49111;51.028;4.218;2022-09-02T03:38:09;8.48;;;4.88;;
62911;SDS011;49111;51.028;4.218;2022-09-02T03:40:36;9.88;;;4.10;;
62911;SDS011;49111;51.028;4.218;2022-09-02T03:43:02;6.88;;;5.20;;
62911;SDS011;49111;51.028;4.218;2022-09-02T03:45:29;7.05;;;4.63;;
62911;SDS011;49111;51.028;4.218;2022-09-02T03:47:57;10.00;;;4.70;;
62911;SDS011;49111;51.028;4.218;2022-09-02T03:50:29;7.80;;;4.65;;
62911;SDS011;49111;51.028;4.218;2022-09-02T03:52:57;7.53;;;4.45;;
62911;SDS011;49111;51.028;4.218;2022-09-02T03:55:24;7.95;;;5.43;;
62911;SDS011;49111;51.028;4.218;2022-09-02T03:57:51;9.43;;;5.28;;
62911;SDS011;49111;51.028;4.218;2022-09-02T04:00:18;10.38;;;4.95;;
62911;SDS011;49111;51.028;4.218;2022-09-02T04:02:48;8.18;;;4.78;;
62911;SDS011;49111;51.028;4.218;2022-09-02T04:05:17;9.43;;;5.00;;
62911;SDS011;49111;51.028;4.218;2022-09-02T04:07:43;7.85;;;4.65;;
62911;SDS011;49111;51.028;4.218;2022-09-02T04:10:10;9.45;;;4.60;;
62911;SDS011;49111;51.028;4.218;2022-09-02T04:12:37;10.77;;;5.32;;
62911;SDS011;49111;51.028;4.218;2022-09-02T04:15:04;9.13;;;5.30;;
62911;SDS011;49111;51.028;4.218;2022-09-02T04:17:37;7.18;;;5.13;;
62911;SDS011;49111;51.028;4.218;2022-09-02T04:20:07;10.05;;;5.07;;
62911;SDS011;49111;51.028;4.218;2022-09-02T04:22:35;8.65;;;5.05;;
62911;SDS011;49111;51.028;4.218;2022-09-02T04:25:01;7.43;;;4.68;;
62911;SDS011;49111;51.028;4.218;2022-09-02T04:27:27;7.45;;;5.20;;
62911;SDS011;49111;51.028;4.218;2022-09-02T04:29:54;6.80;;;4.65;;
62911;SDS011;49111;51.028;4.218;2022-09-02T04:32:21;9.25;;;5.35;;
62911;SDS011;49111;51.028;4.218;2022-09-02T04:34:49;8.65;;;5.15;;
62911;SDS011;49111;51.028;4.218;2022-09-02T04:37:16;10.77;;;5.10;;
62911;SDS011;49111;51.028;4.218;2022-09-02T04:39:45;10.63;;;5.18;;
62911;SDS011;49111;51.028;4.218;2022-09-02T04:42:11;13.25;;;5.00;;
62911;SDS011;49111;51.028;4.218;2022-09-02T04:44:38;8.85;;;4.72;;
62911;SDS011;49111;51.028;4.218;2022-09-02T04:47:05;9.30;;;4.78;;
62911;SDS011;49111;51.028;4.218;2022-09-02T04:49:31;8.00;;;4.47;;
62911;SDS011;49111;51.028;4.218;2022-09-02T04:51:58;9.93;;;5.45;;
62911;SDS011;49111;51.028;4.218;2022-09-02T04:54:25;9.27;;;5.05;;
62911;SDS011;49111;51.028;4.218;2022-09-02T04:56:54;7.45;;;4.75;;
62911;SDS011;49111;51.028;4.218;2022-09-02T04:59:21;8.25;;;4.78;;
62911;SDS011;49111;51.028;4.218;2022-09-02T05:01:59;7.82;;;5.40;;
62911;SDS011;49111;51.028;4.218;2022-09-02T05:04:27;9.85;;;5.53;;
62911;SDS011;49111;51.028;4.218;2022-09-02T05:06:56;7.43;;;5.57;;
62911;SDS011;49111;51.028;4.218;2022-09-02T05:09:22;9.07;;;4.78;;
62911;SDS011;49111;51.028;4.218;2022-09-02T05:11:53;13.40;;;5.22;;
62911;SDS011;49111;51.028;4.218;2022-09-02T05:14:23;8.00;;;4.60;;
62911;SDS011;49111;51.028;4.218;2022-09-02T05:16:49;8.20;;;5.05;;
62911;SDS011;49111;51.028;4.218;2022-09-02T05:19:21;7.82;;;5.10;;
62911;SDS011;49111;51.028;4.218;2022-09-02T05:21:49;9.52;;;5.00;;
62911;SDS011;49111;51.028;4.218;2022-09-02T05:24:24;7.38;;;4.50;;
62911;SDS011;49111;51.028;4.218;2022-09-02T05:26:51;9.07;;;4.85;;
62911;SDS011;49111;51.028;4.218;2022-09-02T05:29:18;9.23;;;5.03;;
62911;SDS011;49111;51.028;4.218;2022-09-02T05:31:46;10.02;;;5.90;;
62911;SDS011;49111;51.028;4.218;2022-09-02T05:34:14;9.75;;;5.18;;
62911;SDS011;49111;51.028;4.218;2022-09-02T05:36:40;8.45;;;5.10;;
62911;SDS011;49111;51.028;4.218;2022-09-02T05:39:06;10.50;;;4.85;;
62911;SDS011;49111;51.028;4.218;2022-09-02T05:41:34;5.90;;;4.57;;
62911;SDS011;49111;51.028;4.218;2022-09-02T05:44:02;7.55;;;5.50;;
62911;SDS011;49111;51.028;4.218;2022-09-02T05:46:30;9.05;;;3.95;;
62911;SDS011;49111;51.028;4.218;2022-09-02T05:48:58;9.93;;;4.80;;
62911;SDS011;49111;51.028;4.218;2022-09-02T05:51:54;6.85;;;4.20;;
62911;SDS011;49111;51.028;4.218;2022-09-02T05:54:28;8.32;;;4.68;;
62911;SDS011;49111;51.028;4.218;2022-09-02T05:57:04;7.55;;;4.47;;
62911;SDS011;49111;51.028;4.218;2022-09-02T05:59:35;8.07;;;5.33;;
62911;SDS011;49111;51.028;4.218;2022-09-02T06:02:04;6.38;;;4.43;;
62911;SDS011;49111;51.028;4.218;2022-09-02T06:04:31;7.57;;;4.38;;
62911;SDS011;49111;51.028;4.218;2022-09-02T06:06:58;7.10;;;3.95;;
62911;SDS011;49111;51.028;4.218;2022-09-02T06:09:24;9.13;;;4.93;;
62911;SDS011;49111;51.028;4.218;2022-09-02T06:11:52;5.97;;;4.35;;
62911;SDS011;49111;51.028;4.218;2022-09-02T06:14:23;6.57;;;4.53;;
62911;SDS011;49111;51.028;4.218;2022-09-02T06:16:51;6.18;;;4.28;;
62911;SDS011;49111;51.028;4.218;2022-09-02T06:19:26;8.05;;;4.18;;
62911;SDS011;49111;51.028;4.218;2022-09-02T06:21:57;8.45;;;4.70;;
62911;SDS011;49111;51.028;4.218;2022-09-02T06:24:25;8.90;;;4.40;;
62911;SDS011;49111;51.028;4.218;2022-09-02T06:26:52;5.45;;;3.92;;
62911;SDS011;49111;51.028;4.218;2022-09-02T06:29:19;6.95;;;4.28;;
62911;SDS011;49111;51.028;4.218;2022-09-02T06:31:47;6.10;;;3.97;;
62911;SDS011;49111;51.028;4.218;2022-09-02T06:34:15;8.98;;;4.65;;
62911;SDS011;49111;51.028;4.218;2022-09-02T06:36:43;8.48;;;4.55;;
62911;SDS011;49111;51.028;4.218;2022-09-02T06:39:12;10.70;;;4.45;;
62911;SDS011;49111;51.028;4.218;2022-09-02T06:41:40;7.22;;;3.97;;
62911;SDS011;49111;51.028;4.218;2022-09-02T06:44:10;6.70;;;3.85;;
62911;SDS011;49111;51.028;4.218;2022-09-02T06:46:38;7.32;;;3.95;;
62911;SDS011;49111;51.028;4.218;2022-09-02T06:49:09;10.85;;;4.32;;
62911;SDS011;49111;51.028;4.218;2022-09-02T06:51:38;6.75;;;3.85;;
62911;SDS011;49111;51.028;4.218;2022-09-02T06:54:07;8.07;;;3.97;;
62911;SDS011;49111;51.028;4.218;2022-09-02T06:56:36;8.35;;;4.93;;
62911;SDS011;49111;51.028;4.218;2022-09-02T06:59:04;7.07;;;3.72;;
62911;SDS011;49111;51.028;4.218;2022-09-02T07:01:41;6.15;;;3.78;;
62911;SDS011;49111;51.028;4.218;2022-09-02T07:04:09;6.28;;;4.15;;
62911;SDS011;49111;51.028;4.218;2022-09-02T07:06:53;6.38;;;4.60;;
62911;SDS011;49111;51.028;4.218;2022-09-02T07:09:24;5.93;;;3.78;;
62911;SDS011;49111;51.028;4.218;2022-09-02T07:14:38;4.50;;;3.25;;
62911;SDS011;49111;51.028;4.218;2022-09-02T07:17:06;9.10;;;4.47;;
62911;SDS011;49111;51.028;4.218;2022-09-02T07:19:34;4.97;;;3.13;;
62911;SDS011;49111;51.028;4.218;2022-09-02T07:22:04;7.60;;;3.80;;
62911;SDS011;49111;51.028;4.218;2022-09-02T07:24:34;5.45;;;3.63;;
62911;SDS011;49111;51.028;4.218;2022-09-02T07:27:01;6.25;;;3.95;;
62911;SDS011;49111;51.028;4.218;2022-09-02T07:29:29;6.15;;;2.90;;
62911;SDS011;49111;51.028;4.218;2022-09-02T07:31:55;7.20;;;4.03;;
62911;SDS011;49111;51.028;4.218;2022-09-02T07:34:21;5.20;;;3.58;;
62911;SDS011;49111;51.028;4.218;2022-09-02T07:36:48;8.75;;;3.42;;
62911;SDS011;49111;51.028;4.218;2022-09-02T07:39:18;9.13;;;3.90;;
62911;SDS011;49111;51.028;4.218;2022-09-02T07:41:46;5.57;;;3.40;;
62911;SDS011;49111;51.028;4.218;2022-09-02T07:44:16;6.45;;;3.80;;
62911;SDS011;49111;51.028;4.218;2022-09-02T07:46:43;6.22;;;3.88;;
62911;SDS011;49111;51.028;4.218;2022-09-02T07:49:10;7.63;;;3.42;;
62911;SDS011;49111;51.028;4.218;2022-09-02T07:51:39;5.57;;;3.88;;
62911;SDS011;49111;51.028;4.218;2022-09-02T07:54:08;5.07;;;4.15;;
62911;SDS011;49111;51.028;4.218;2022-09-02T07:56:35;6.72;;;3.85;;
62911;SDS011;49111;51.028;4.218;2022-09-02T07:59:02;7.25;;;3.45;;
62911;SDS011;49111;51.028;4.218;2022-09-02T08:01:28;5.50;;;3.67;;
62911;SDS011;49111;51.028;4.218;2022-09-02T08:03:55;6.97;;;3.92;;
62911;SDS011;49111;51.028;4.218;2022-09-02T08:06:25;5.57;;;3.03;;
62911;SDS011;49111;51.028;4.218;2022-09-02T08:08:53;6.93;;;3.40;;
62911;SDS011;49111;51.028;4.218;2022-09-02T08:11:20;9.68;;;3.78;;
62911;SDS011;49111;51.028;4.218;2022-09-02T08:13:46;6.13;;;3.00;;
62911;SDS011;49111;51.028;4.218;2022-09-02T08:16:12;6.00;;;3.22;;
62911;SDS011;49111;51.028;4.218;2022-09-02T08:18:38;5.47;;;3.20;;
62911;SDS011;49111;51.028;4.218;2022-09-02T08:21:03;5.72;;;3.33;;
62911;SDS011;49111;51.028;4.218;2022-09-02T08:23:29;4.20;;;2.60;;
62911;SDS011;49111;51.028;4.218;2022-09-02T08:25:57;6.20;;;3.30;;
62911;SDS011;49111;51.028;4.218;2022-09-02T08:28:24;4.78;;;2.88;;
62911;SDS011;49111;51.028;4.218;2022-09-02T08:30:51;4.85;;;3.42;;
62911;SDS011;49111;51.028;4.218;2022-09-02T08:33:19;4.40;;;2.92;;
62911;SDS011;49111;51.028;4.218;2022-09-02T08:35:45;8.02;;;3.90;;
62911;SDS011;49111;51.028;4.218;2022-09-02T08:38:12;5.97;;;3.17;;
62911;SDS011;49111;51.028;4.218;2022-09-02T08:40:41;6.90;;;3.03;;
62911;SDS011;49111;51.028;4.218;2022-09-02T08:46:02;4.18;;;2.63;;
62911;SDS011;49111;51.028;4.218;2022-09-02T08:50:59;5.70;;;2.85;;
62911;SDS011;49111;51.028;4.218;2022-09-02T08:53:37;4.53;;;3.30;;
62911;SDS011;49111;51.028;4.218;2022-09-02T08:56:18;5.68;;;3.30;;
62911;SDS011;49111;51.028;4.218;2022-09-02T08:58:47;5.70;;;3.63;;
62911;SDS011;49111;51.028;4.218;2022-09-02T09:01:28;7.82;;;3.50;;
62911;SDS011;49111;51.028;4.218;2022-09-02T09:04:25;7.05;;;3.03;;
62911;SDS011;49111;51.028;4.218;2022-09-02T09:07:34;7.55;;;3.35;;
62911;SDS011;49111;51.028;4.218;2022-09-02T09:10:15;7.00;;;3.80;;
62911;SDS011;49111;51.028;4.218;2022-09-02T09:13:29;6.82;;;2.75;;
62911;SDS011;49111;51.028;4.218;2022-09-02T09:19:01;8.65;;;4.38;;
62911;SDS011;49111;51.028;4.218;2022-09-02T09:21:31;6.15;;;3.20;;
62911;SDS011;49111;51.028;4.218;2022-09-02T09:23:59;10.20;;;4.93;;
62911;SDS011;49111;51.028;4.218;2022-09-02T09:26:31;6.35;;;3.47;;
62911;SDS011;49111;51.028;4.218;2022-09-02T09:29:02;6.32;;;3.70;;
62911;SDS011;49111;51.028;4.218;2022-09-02T09:45:32;5.13;;;2.95;;
62911;SDS011;49111;51.028;4.218;2022-09-02T09:48:20;5.45;;;3.28;;
62911;SDS011;49111;51.028;4.218;2022-09-02T09:53:27;5.22;;;2.65;;
62911;SDS011;49111;51.028;4.218;2022-09-02T09:55:55;5.22;;;3.25;;
62911;SDS011;49111;51.028;4.218;2022-09-02T10:04:08;5.80;;;3.17;;
62911;SDS011;49111;51.028;4.218;2022-09-02T10:06:35;6.97;;;2.90;;
62911;SDS011;49111;51.028;4.218;2022-09-02T10:09:05;5.65;;;3.10;;
62911;SDS011;49111;51.028;4.218;2022-09-02T10:11:57;3.07;;;2.70;;
62911;SDS011;49111;51.028;4.218;2022-09-02T10:14:25;5.88;;;3.58;;
62911;SDS011;49111;51.028;4.218;2022-09-02T10:30:53;5.25;;;2.75;;
62911;SDS011;49111;51.028;4.218;2022-09-02T10:36:14;4.32;;;3.25;;
62911;SDS011;49111;51.028;4.218;2022-09-02T10:39:13;5.28;;;2.97;;
62911;SDS011;49111;51.028;4.218;2022-09-02T10:41:41;7.20;;;3.17;;
62911;SDS011;49111;51.028;4.218;2022-09-02T10:57:12;4.68;;;2.75;;
62911;SDS011;49111;51.028;4.218;2022-09-02T11:04:50;6.28;;;2.60;;
62911;SDS011;49111;51.028;4.218;2022-09-02T11:07:26;3.65;;;2.75;;
62911;SDS011;49111;51.028;4.218;2022-09-02T11:10:18;3.33;;;2.92;;
62911;SDS011;49111;51.028;4.218;2022-09-02T11:13:00;6.75;;;2.88;;
62911;SDS011;49111;51.028;4.218;2022-09-02T11:15:55;5.25;;;2.67;;
62911;SDS011;49111;51.028;4.218;2022-09-02T11:21:33;4.03;;;2.50;;
62911;SDS011;49111;51.028;4.218;2022-09-02T11:24:18;7.32;;;3.20;;
62911;SDS011;49111;51.028;4.218;2022-09-02T11:29:33;5.75;;;2.83;;
62911;SDS011;49111;51.028;4.218;2022-09-02T11:34:38;5.40;;;3.08;;
62911;SDS011;49111;51.028;4.218;2022-09-02T11:38:00;4.03;;;2.45;;
62911;SDS011;49111;51.028;4.218;2022-09-02T11:41:03;9.93;;;2.80;;
62911;SDS011;49111;51.028;4.218;2022-09-02T11:43:22;4.45;;;2.42;;
62911;SDS011;49111;51.028;4.218;2022-09-02T11:54:28;2.55;;;2.28;;
62911;SDS011;49111;51.028;4.218;2022-09-02T11:57:10;5.32;;;2.20;;
62911;SDS011;49111;51.028;4.218;2022-09-02T12:07:57;4.53;;;2.35;;
62911;SDS011;49111;51.028;4.218;2022-09-02T12:15:44;2.67;;;2.00;;
62911;SDS011;49111;51.028;4.218;2022-09-02T12:18:25;4.60;;;1.73;;
62911;SDS011;49111;51.028;4.218;2022-09-02T12:26:13;7.68;;;2.50;;
62911;SDS011;49111;51.028;4.218;2022-09-02T12:28:50;3.30;;;2.30;;
62911;SDS011;49111;51.028;4.218;2022-09-02T12:36:51;2.60;;;2.10;;
62911;SDS011;49111;51.028;4.218;2022-09-02T12:42:35;7.03;;;2.67;;
62911;SDS011;49111;51.028;4.218;2022-09-02T12:45:01;5.57;;;2.40;;
62911;SDS011;49111;51.028;4.218;2022-09-02T12:55:59;3.50;;;2.30;;
62911;SDS011;49111;51.028;4.218;2022-09-02T12:58:34;2.30;;;2.08;;
62911;SDS011;49111;51.028;4.218;2022-09-02T13:07:02;2.15;;;1.75;;
62911;SDS011;49111;51.028;4.218;2022-09-02T13:15:57;2.97;;;1.80;;
62911;SDS011;49111;51.028;4.218;2022-09-02T13:21:14;3.22;;;2.13;;
62911;SDS011;49111;51.028;4.218;2022-09-02T13:34:44;4.20;;;2.10;;
62911;SDS011;49111;51.028;4.218;2022-09-02T13:37:31;2.92;;;1.63;;
62911;SDS011;49111;51.028;4.218;2022-09-02T13:42:50;2.78;;;1.90;;
62911;SDS011;49111;51.028;4.218;2022-09-02T13:45:35;3.65;;;1.95;;
62911;SDS011;49111;51.028;4.218;2022-09-02T13:48:04;3.25;;;2.00;;
62911;SDS011;49111;51.028;4.218;2022-09-02T13:50:42;2.83;;;1.98;;
62911;SDS011;49111;51.028;4.218;2022-09-02T13:53:11;4.90;;;1.45;;
62911;SDS011;49111;51.028;4.218;2022-09-02T13:55:47;3.78;;;2.10;;
62911;SDS011;49111;51.028;4.218;2022-09-02T14:04:11;2.20;;;2.00;;
62911;SDS011;49111;51.028;4.218;2022-09-02T14:06:41;3.03;;;1.70;;
62911;SDS011;49111;51.028;4.218;2022-09-02T14:09:17;5.88;;;2.15;;
62911;SDS011;49111;51.028;4.218;2022-09-02T14:11:46;2.50;;;1.92;;
62911;SDS011;49111;51.028;4.218;2022-09-02T14:14:13;2.20;;;1.75;;
62911;SDS011;49111;51.028;4.218;2022-09-02T14:16:41;1.75;;;1.60;;
62911;SDS011;49111;51.028;4.218;2022-09-02T14:19:10;2.28;;;1.73;;
62911;SDS011;49111;51.028;4.218;2022-09-02T14:21:44;2.28;;;1.90;;
62911;SDS011;49111;51.028;4.218;2022-09-02T14:24:20;3.72;;;2.13;;
62911;SDS011;49111;51.028;4.218;2022-09-02T14:26:49;2.92;;;2.13;;
62911;SDS011;49111;51.028;4.218;2022-09-02T14:29:17;2.47;;;1.60;;
62911;SDS011;49111;51.028;4.218;2022-09-02T14:31:44;4.88;;;1.90;;
62911;SDS011;49111;51.028;4.218;2022-09-02T14:37:13;5.47;;;1.87;;
62911;SDS011;49111;51.028;4.218;2022-09-02T14:39:51;3.15;;;2.00;;
62911;SDS011;49111;51.028;4.218;2022-09-02T14:42:27;5.22;;;1.95;;
62911;SDS011;49111;51.028;4.218;2022-09-02T14:44:53;2.58;;;2.10;;
62911;SDS011;49111;51.028;4.218;2022-09-02T14:47:18;3.30;;;1.88;;
62911;SDS011;49111;51.028;4.218;2022-09-02T14:55:00;3.25;;;1.77;;
62911;SDS011;49111;51.028;4.218;2022-09-02T14:57:33;3.30;;;1.52;;
62911;SDS011;49111;51.028;4.218;2022-09-02T15:02:35;4.22;;;1.65;;
62911;SDS011;49111;51.028;4.218;2022-09-02T15:05:04;5.10;;;1.73;;
62911;SDS011;49111;51.028;4.218;2022-09-02T15:07:32;3.25;;;2.00;;
62911;SDS011;49111;51.028;4.218;2022-09-02T15:09:58;3.30;;;1.90;;
62911;SDS011;49111;51.028;4.218;2022-09-02T15:12:25;2.88;;;1.60;;
62911;SDS011;49111;51.028;4.218;2022-09-02T15:14:54;4.40;;;1.70;;
62911;SDS011;49111;51.028;4.218;2022-09-02T15:17:21;1.92;;;1.45;;
62911;SDS011;49111;51.028;4.218;2022-09-02T15:19:47;3.03;;;1.45;;
62911;SDS011;49111;51.028;4.218;2022-09-02T15:22:13;3.03;;;1.58;;
62911;SDS011;49111;51.028;4.218;2022-09-02T15:24:40;2.50;;;1.42;;
62911;SDS011;49111;51.028;4.218;2022-09-02T15:27:10;2.33;;;1.38;;
62911;SDS011;49111;51.028;4.218;2022-09-02T15:29:36;2.28;;;1.60;;
62911;SDS011;49111;51.028;4.218;2022-09-02T15:32:03;3.70;;;1.50;;
62911;SDS011;49111;51.028;4.218;2022-09-02T15:34:29;2.45;;;1.45;;
62911;SDS011;49111;51.028;4.218;2022-09-02T15:36:55;8.45;;;2.10;;
62911;SDS011;49111;51.028;4.218;2022-09-02T15:39:22;2.90;;;1.80;;
62911;SDS011;49111;51.028;4.218;2022-09-02T15:41:48;1.95;;;1.75;;
62911;SDS011;49111;51.028;4.218;2022-09-02T15:44:15;1.63;;;1.42;;
62911;SDS011;49111;51.028;4.218;2022-09-02T15:46:42;2.25;;;1.60;;
62911;SDS011;49111;51.028;4.218;2022-09-02T15:49:09;2.03;;;1.35;;
62911;SDS011;49111;51.028;4.218;2022-09-02T15:51:37;4.38;;;1.65;;
62911;SDS011;49111;51.028;4.218;2022-09-02T15:54:04;2.80;;;1.77;;
62911;SDS011;49111;51.028;4.218;2022-09-02T15:56:33;8.98;;;2.03;;
62911;SDS011;49111;51.028;4.218;2022-09-02T15:59:01;2.78;;;2.08;;
62911;SDS011;49111;51.028;4.218;2022-09-02T16:01:32;3.10;;;1.55;;
62911;SDS011;49111;51.028;4.218;2022-09-02T16:03:59;2.78;;;1.60;;
62911;SDS011;49111;51.028;4.218;2022-09-02T16:06:29;2.13;;;1.45;;
62911;SDS011;49111;51.028;4.218;2022-09-02T16:08:56;3.60;;;1.50;;
62911;SDS011;49111;51.028;4.218;2022-09-02T16:11:22;4.40;;;1.65;;
62911;SDS011;49111;51.028;4.218;2022-09-02T16:13:49;1.92;;;1.20;;
62911;SDS011;49111;51.028;4.218;2022-09-02T16:16:15;2.25;;;1.30;;
62911;SDS011;49111;51.028;4.218;2022-09-02T16:18:41;1.60;;;1.25;;
62911;SDS011;49111;51.028;4.218;2022-09-02T16:21:09;3.15;;;1.30;;
62911;SDS011;49111;51.028;4.218;2022-09-02T16:23:36;3.03;;;1.60;;
62911;SDS011;49111;51.028;4.218;2022-09-02T16:28:35;2.15;;;1.30;;
62911;SDS011;49111;51.028;4.218;2022-09-02T16:31:02;1.65;;;1.55;;
62911;SDS011;49111;51.028;4.218;2022-09-02T16:33:29;4.22;;;1.40;;
62911;SDS011;49111;51.028;4.218;2022-09-02T16:35:55;1.65;;;1.20;;
62911;SDS011;49111;51.028;4.218;2022-09-02T16:38:21;2.33;;;1.35;;
62911;SDS011;49111;51.028;4.218;2022-09-02T16:40:50;2.35;;;1.50;;
62911;SDS011;49111;51.028;4.218;2022-09-02T16:43:17;3.70;;;1.60;;
62911;SDS011;49111;51.028;4.218;2022-09-02T16:45:47;3.40;;;1.50;;
62911;SDS011;49111;51.028;4.218;2022-09-02T16:48:16;4.53;;;1.60;;
62911;SDS011;49111;51.028;4.218;2022-09-02T16:50:46;3.63;;;1.70;;
62911;SDS011;49111;51.028;4.218;2022-09-02T16:53:13;4.53;;;1.48;;
62911;SDS011;49111;51.028;4.218;2022-09-02T16:55:40;1.92;;;1.30;;
62911;SDS011;49111;51.028;4.218;2022-09-02T16:58:07;2.85;;;2.05;;
62911;SDS011;49111;51.028;4.218;2022-09-02T17:00:37;2.70;;;1.80;;
62911;SDS011;49111;51.028;4.218;2022-09-02T17:03:13;5.25;;;1.80;;
62911;SDS011;49111;51.028;4.218;2022-09-02T17:05:39;3.85;;;2.28;;
62911;SDS011;49111;51.028;4.218;2022-09-02T17:08:05;2.78;;;1.30;;
62911;SDS011;49111;51.028;4.218;2022-09-02T17:10:32;2.35;;;1.52;;
62911;SDS011;49111;51.028;4.218;2022-09-02T17:12:59;7.97;;;2.03;;
62911;SDS011;49111;51.028;4.218;2022-09-02T17:15:25;4.97;;;1.50;;
62911;SDS011;49111;51.028;4.218;2022-09-02T17:17:53;4.57;;;1.42;;
62911;SDS011;49111;51.028;4.218;2022-09-02T17:20:19;5.68;;;1.55;;
62911;SDS011;49111;51.028;4.218;2022-09-02T17:22:46;2.60;;;1.60;;
62911;SDS011;49111;51.028;4.218;2022-09-02T17:25:12;1.70;;;1.50;;
62911;SDS011;49111;51.028;4.218;2022-09-02T17:27:38;3.40;;;1.70;;
62911;SDS011;49111;51.028;4.218;2022-09-02T17:30:06;1.88;;;1.65;;
62911;SDS011;49111;51.028;4.218;2022-09-02T17:32:35;2.00;;;1.63;;
62911;SDS011;49111;51.028;4.218;2022-09-02T17:35:02;3.78;;;1.70;;
62911;SDS011;49111;51.028;4.218;2022-09-02T17:37:28;2.22;;;1.50;;
62911;SDS011;49111;51.028;4.218;2022-09-02T17:39:54;3.33;;;1.63;;
62911;SDS011;49111;51.028;4.218;2022-09-02T17:42:20;2.42;;;1.67;;
62911;SDS011;49111;51.028;4.218;2022-09-02T17:44:46;3.17;;;1.70;;
62911;SDS011;49111;51.028;4.218;2022-09-02T17:47:19;2.63;;;1.92;;
62911;SDS011;49111;51.028;4.218;2022-09-02T17:49:46;3.08;;;1.70;;
62911;SDS011;49111;51.028;4.218;2022-09-02T17:52:13;2.67;;;1.73;;
62911;SDS011;49111;51.028;4.218;2022-09-02T17:54:42;3.97;;;1.75;;